sensor_id;sensor_type;location;lat;lon;timestamp;temperature;humidity
11385;DHT22;5747;56.748;13.882;2022-07-23T00:01:00;14.60;99.90
11385;DHT22;5747;56.748;13.882;2022-07-23T00:03:28;14.50;99.90
11385;DHT22;5747;56.748;13.882;2022-07-23T00:05:57;14.50;99.90
11385;DHT22;5747;56.748;13.882;2022-07-23T00:08:25;14.50;99.90
11385;DHT22;5747;56.748;13.882;2022-07-23T00:10:53;14.40;99.90
11385;DHT22;5747;56.748;13.882;2022-07-23T00:13:21;14.50;99.90
11385;DHT22;5747;56.748;13.882;2022-07-23T00:15:50;14.40;99.90
11385;DHT22;5747;56.748;13.882;2022-07-23T00:18:18;14.30;99.90
11385;DHT22;5747;56.748;13.882;2022-07-23T00:20:46;14.20;99.90
11385;DHT22;5747;56.748;13.882;2022-07-23T00:23:16;14.20;99.90
11385;DHT22;5747;56.748;13.882;2022-07-23T00:25:45;14.20;99.90
11385;DHT22;5747;56.748;13.882;2022-07-23T00:28:13;14.20;99.90
11385;DHT22;5747;56.748;13.882;2022-07-23T00:30:41;14.20;99.90
11385;DHT22;5747;56.748;13.882;2022-07-23T00:33:10;14.00;99.90
11385;DHT22;5747;56.748;13.882;2022-07-23T00:35:40;14.10;99.90
11385;DHT22;5747;56.748;13.882;2022-07-23T00:38:09;14.10;99.90
11385;DHT22;5747;56.748;13.882;2022-07-23T00:40:39;14.10;99.90
11385;DHT22;5747;56.748;13.882;2022-07-23T00:43:08;14.10;99.90
11385;DHT22;5747;56.748;13.882;2022-07-23T00:45:36;14.10;99.90
11385;DHT22;5747;56.748;13.882;2022-07-23T00:48:05;14.10;99.90
11385;DHT22;5747;56.748;13.882;2022-07-23T00:50:34;14.10;99.90
11385;DHT22;5747;56.748;13.882;2022-07-23T00:53:02;14.10;99.90
11385;DHT22;5747;56.748;13.882;2022-07-23T00:55:31;14.10;99.90
11385;DHT22;5747;56.748;13.882;2022-07-23T00:58:02;14.10;99.90
11385;DHT22;5747;56.748;13.882;2022-07-23T01:00:30;14.10;99.90
11385;DHT22;5747;56.748;13.882;2022-07-23T01:02:58;14.10;99.90
11385;DHT22;5747;56.748;13.882;2022-07-23T01:05:27;14.10;99.90
11385;DHT22;5747;56.748;13.882;2022-07-23T01:07:55;14.20;99.90
11385;DHT22;5747;56.748;13.882;2022-07-23T01:10:24;14.20;99.90
11385;DHT22;5747;56.748;13.882;2022-07-23T01:13:05;14.20;99.90
11385;DHT22;5747;56.748;13.882;2022-07-23T01:15:34;14.20;99.90
11385;DHT22;5747;56.748;13.882;2022-07-23T01:18:04;14.10;99.90
11385;DHT22;5747;56.748;13.882;2022-07-23T01:20:35;14.20;99.90
11385;DHT22;5747;56.748;13.882;2022-07-23T01:23:05;14.30;99.90
11385;DHT22;5747;56.748;13.882;2022-07-23T01:25:34;14.30;99.90
11385;DHT22;5747;56.748;13.882;2022-07-23T01:28:03;14.30;99.90
11385;DHT22;5747;56.748;13.882;2022-07-23T01:30:32;14.30;99.90
11385;DHT22;5747;56.748;13.882;2022-07-23T01:33:03;14.20;99.90
11385;DHT22;5747;56.748;13.882;2022-07-23T01:35:31;14.20;99.90
11385;DHT22;5747;56.748;13.882;2022-07-23T01:38:05;14.20;99.90
11385;DHT22;5747;56.748;13.882;2022-07-23T01:40:34;14.20;99.90
11385;DHT22;5747;56.748;13.882;2022-07-23T01:43:04;14.10;99.90
11385;DHT22;5747;56.748;13.882;2022-07-23T01:45:35;14.20;99.90
11385;DHT22;5747;56.748;13.882;2022-07-23T01:48:05;14.20;99.90
11385;DHT22;5747;56.748;13.882;2022-07-23T01:50:39;14.10;99.90
11385;DHT22;5747;56.748;13.882;2022-07-23T01:53:28;14.10;99.90
11385;DHT22;5747;56.748;13.882;2022-07-23T01:55:58;14.10;99.90
11385;DHT22;5747;56.748;13.882;2022-07-23T01:58:27;14.10;99.90
11385;DHT22;5747;56.748;13.882;2022-07-23T02:00:55;14.00;99.90
11385;DHT22;5747;56.748;13.882;2022-07-23T02:03:23;14.10;99.90
11385;DHT22;5747;56.748;13.882;2022-07-23T02:05:52;14.10;99.90
11385;DHT22;5747;56.748;13.882;2022-07-23T02:08:20;14.10;99.90
11385;DHT22;5747;56.748;13.882;2022-07-23T02:10:50;14.20;99.90
11385;DHT22;5747;56.748;13.882;2022-07-23T02:13:18;14.20;99.90
11385;DHT22;5747;56.748;13.882;2022-07-23T02:15:47;14.20;99.90
11385;DHT22;5747;56.748;13.882;2022-07-23T02:18:15;14.20;99.90
11385;DHT22;5747;56.748;13.882;2022-07-23T02:20:44;14.30;99.90
11385;DHT22;5747;56.748;13.882;2022-07-23T02:23:12;14.30;99.90
11385;DHT22;5747;56.748;13.882;2022-07-23T02:25:40;14.30;99.90
11385;DHT22;5747;56.748;13.882;2022-07-23T02:28:11;14.30;99.90
11385;DHT22;5747;56.748;13.882;2022-07-23T02:30:41;14.30;99.90
11385;DHT22;5747;56.748;13.882;2022-07-23T02:33:10;14.40;99.90
11385;DHT22;5747;56.748;13.882;2022-07-23T02:35:39;14.30;99.90
11385;DHT22;5747;56.748;13.882;2022-07-23T02:38:08;14.30;99.90
11385;DHT22;5747;56.748;13.882;2022-07-23T02:40:36;14.40;99.90
11385;DHT22;5747;56.748;13.882;2022-07-23T02:43:04;14.40;99.90
11385;DHT22;5747;56.748;13.882;2022-07-23T02:45:33;14.40;99.90
11385;DHT22;5747;56.748;13.882;2022-07-23T02:48:02;14.40;99.90
11385;DHT22;5747;56.748;13.882;2022-07-23T02:50:30;14.30;99.90
11385;DHT22;5747;56.748;13.882;2022-07-23T02:53:00;14.30;99.90
11385;DHT22;5747;56.748;13.882;2022-07-23T02:55:28;14.30;99.90
11385;DHT22;5747;56.748;13.882;2022-07-23T02:57:59;14.40;99.90
11385;DHT22;5747;56.748;13.882;2022-07-23T03:00:28;14.40;99.90
11385;DHT22;5747;56.748;13.882;2022-07-23T03:02:58;14.30;99.90
11385;DHT22;5747;56.748;13.882;2022-07-23T03:05:26;14.30;99.90
11385;DHT22;5747;56.748;13.882;2022-07-23T03:07:54;14.30;99.90
11385;DHT22;5747;56.748;13.882;2022-07-23T03:10:22;14.20;99.90
11385;DHT22;5747;56.748;13.882;2022-07-23T03:12:51;14.20;99.90
11385;DHT22;5747;56.748;13.882;2022-07-23T03:15:19;14.20;99.90
11385;DHT22;5747;56.748;13.882;2022-07-23T03:17:47;14.30;99.90
11385;DHT22;5747;56.748;13.882;2022-07-23T03:20:16;14.30;99.90
11385;DHT22;5747;56.748;13.882;2022-07-23T03:22:44;14.30;99.90
11385;DHT22;5747;56.748;13.882;2022-07-23T03:25:13;14.30;99.90
11385;DHT22;5747;56.748;13.882;2022-07-23T03:27:41;14.30;99.90
11385;DHT22;5747;56.748;13.882;2022-07-23T03:30:10;14.30;99.90
11385;DHT22;5747;56.748;13.882;2022-07-23T03:32:38;14.50;99.90
11385;DHT22;5747;56.748;13.882;2022-07-23T03:35:07;14.50;99.90
11385;DHT22;5747;56.748;13.882;2022-07-23T03:37:43;14.50;99.90
11385;DHT22;5747;56.748;13.882;2022-07-23T03:40:13;14.40;99.90
11385;DHT22;5747;56.748;13.882;2022-07-23T03:42:41;14.40;99.90
11385;DHT22;5747;56.748;13.882;2022-07-23T03:45:10;14.40;99.90
11385;DHT22;5747;56.748;13.882;2022-07-23T03:47:38;14.30;99.90
11385;DHT22;5747;56.748;13.882;2022-07-23T03:50:07;14.40;99.90
11385;DHT22;5747;56.748;13.882;2022-07-23T03:52:35;14.40;99.90
11385;DHT22;5747;56.748;13.882;2022-07-23T03:55:06;14.50;99.90
11385;DHT22;5747;56.748;13.882;2022-07-23T03:57:35;14.60;99.90
11385;DHT22;5747;56.748;13.882;2022-07-23T04:00:04;14.60;99.90
11385;DHT22;5747;56.748;13.882;2022-07-23T04:02:39;14.70;99.90
11385;DHT22;5747;56.748;13.882;2022-07-23T04:05:09;14.70;99.90
11385;DHT22;5747;56.748;13.882;2022-07-23T04:07:39;14.70;99.90
11385;DHT22;5747;56.748;13.882;2022-07-23T04:10:09;14.70;99.90
11385;DHT22;5747;56.748;13.882;2022-07-23T04:12:37;14.80;99.90
11385;DHT22;5747;56.748;13.882;2022-07-23T04:15:08;14.80;99.90
11385;DHT22;5747;56.748;13.882;2022-07-23T04:17:36;14.80;99.90
11385;DHT22;5747;56.748;13.882;2022-07-23T04:20:06;14.60;99.90
11385;DHT22;5747;56.748;13.882;2022-07-23T04:22:41;14.60;99.90
11385;DHT22;5747;56.748;13.882;2022-07-23T04:25:11;14.60;99.90
11385;DHT22;5747;56.748;13.882;2022-07-23T04:27:40;14.60;99.90
11385;DHT22;5747;56.748;13.882;2022-07-23T04:30:09;14.60;99.90
11385;DHT22;5747;56.748;13.882;2022-07-23T04:32:37;14.60;99.90
11385;DHT22;5747;56.748;13.882;2022-07-23T04:35:12;14.70;99.90
11385;DHT22;5747;56.748;13.882;2022-07-23T04:37:41;14.70;99.90
11385;DHT22;5747;56.748;13.882;2022-07-23T04:40:12;14.70;99.90
11385;DHT22;5747;56.748;13.882;2022-07-23T04:42:40;14.80;99.90
11385;DHT22;5747;56.748;13.882;2022-07-23T04:45:09;14.80;99.90
11385;DHT22;5747;56.748;13.882;2022-07-23T04:47:40;14.80;99.90
11385;DHT22;5747;56.748;13.882;2022-07-23T04:50:08;14.90;99.90
11385;DHT22;5747;56.748;13.882;2022-07-23T04:52:39;15.10;99.90
11385;DHT22;5747;56.748;13.882;2022-07-23T04:55:08;15.30;99.90
11385;DHT22;5747;56.748;13.882;2022-07-23T04:57:37;15.50;99.90
11385;DHT22;5747;56.748;13.882;2022-07-23T05:00:07;15.60;99.90
11385;DHT22;5747;56.748;13.882;2022-07-23T05:02:36;15.80;99.90
11385;DHT22;5747;56.748;13.882;2022-07-23T05:05:05;15.70;99.90
11385;DHT22;5747;56.748;13.882;2022-07-23T05:07:33;15.70;99.90
11385;DHT22;5747;56.748;13.882;2022-07-23T05:10:02;15.60;99.90
11385;DHT22;5747;56.748;13.882;2022-07-23T05:12:30;15.50;99.90
11385;DHT22;5747;56.748;13.882;2022-07-23T05:15:01;15.30;99.90
11385;DHT22;5747;56.748;13.882;2022-07-23T05:17:30;15.30;99.90
11385;DHT22;5747;56.748;13.882;2022-07-23T05:19:58;15.30;99.90
11385;DHT22;5747;56.748;13.882;2022-07-23T05:22:28;15.40;99.90
11385;DHT22;5747;56.748;13.882;2022-07-23T05:24:56;15.50;99.90
11385;DHT22;5747;56.748;13.882;2022-07-23T05:27:25;15.60;99.90
11385;DHT22;5747;56.748;13.882;2022-07-23T05:29:53;15.70;99.90
11385;DHT22;5747;56.748;13.882;2022-07-23T05:32:23;15.70;99.90
11385;DHT22;5747;56.748;13.882;2022-07-23T05:35:06;15.70;99.90
11385;DHT22;5747;56.748;13.882;2022-07-23T05:37:38;15.80;99.90
11385;DHT22;5747;56.748;13.882;2022-07-23T05:40:08;15.80;99.90
11385;DHT22;5747;56.748;13.882;2022-07-23T05:42:38;15.60;99.90
11385;DHT22;5747;56.748;13.882;2022-07-23T05:45:07;15.60;99.90
11385;DHT22;5747;56.748;13.882;2022-07-23T05:47:42;15.40;99.90
11385;DHT22;5747;56.748;13.882;2022-07-23T05:50:13;15.40;99.90
11385;DHT22;5747;56.748;13.882;2022-07-23T05:52:45;15.60;99.90
11385;DHT22;5747;56.748;13.882;2022-07-23T05:55:20;15.80;99.90
11385;DHT22;5747;56.748;13.882;2022-07-23T05:57:48;16.10;99.90
11385;DHT22;5747;56.748;13.882;2022-07-23T06:00:16;16.20;99.90
11385;DHT22;5747;56.748;13.882;2022-07-23T06:02:47;16.10;99.90
11385;DHT22;5747;56.748;13.882;2022-07-23T06:05:22;16.10;99.90
11385;DHT22;5747;56.748;13.882;2022-07-23T06:07:52;16.10;99.90
11385;DHT22;5747;56.748;13.882;2022-07-23T06:10:22;16.20;99.90
11385;DHT22;5747;56.748;13.882;2022-07-23T06:12:51;16.10;99.90
11385;DHT22;5747;56.748;13.882;2022-07-23T06:15:25;15.90;99.90
11385;DHT22;5747;56.748;13.882;2022-07-23T06:17:54;16.00;99.90
11385;DHT22;5747;56.748;13.882;2022-07-23T06:20:23;16.00;99.90
11385;DHT22;5747;56.748;13.882;2022-07-23T06:22:51;15.80;99.90
11385;DHT22;5747;56.748;13.882;2022-07-23T06:25:19;15.70;99.90
11385;DHT22;5747;56.748;13.882;2022-07-23T06:27:48;15.60;99.90
11385;DHT22;5747;56.748;13.882;2022-07-23T06:30:16;15.40;99.90
11385;DHT22;5747;56.748;13.882;2022-07-23T06:32:45;15.40;99.90
11385;DHT22;5747;56.748;13.882;2022-07-23T06:35:16;15.30;99.90
11385;DHT22;5747;56.748;13.882;2022-07-23T06:37:46;15.30;99.90
11385;DHT22;5747;56.748;13.882;2022-07-23T06:40:15;15.40;99.90
11385;DHT22;5747;56.748;13.882;2022-07-23T06:42:43;15.50;99.90
11385;DHT22;5747;56.748;13.882;2022-07-23T06:45:16;15.70;99.90
11385;DHT22;5747;56.748;13.882;2022-07-23T06:47:46;15.90;99.90
11385;DHT22;5747;56.748;13.882;2022-07-23T06:50:16;16.20;99.90
11385;DHT22;5747;56.748;13.882;2022-07-23T06:52:45;16.40;99.90
11385;DHT22;5747;56.748;13.882;2022-07-23T06:55:13;16.60;99.90
11385;DHT22;5747;56.748;13.882;2022-07-23T06:57:41;16.60;99.90
11385;DHT22;5747;56.748;13.882;2022-07-23T07:00:11;16.90;99.90
11385;DHT22;5747;56.748;13.882;2022-07-23T07:02:39;16.80;99.90
11385;DHT22;5747;56.748;13.882;2022-07-23T07:05:07;16.80;99.90
11385;DHT22;5747;56.748;13.882;2022-07-23T07:07:37;16.90;99.90
11385;DHT22;5747;56.748;13.882;2022-07-23T07:10:06;17.10;99.90
11385;DHT22;5747;56.748;13.882;2022-07-23T07:12:41;17.10;99.90
11385;DHT22;5747;56.748;13.882;2022-07-23T07:15:10;17.00;99.90
11385;DHT22;5747;56.748;13.882;2022-07-23T07:17:38;16.90;99.90
11385;DHT22;5747;56.748;13.882;2022-07-23T07:20:07;17.00;99.90
11385;DHT22;5747;56.748;13.882;2022-07-23T07:22:37;17.00;99.90
11385;DHT22;5747;56.748;13.882;2022-07-23T07:25:06;17.10;99.90
11385;DHT22;5747;56.748;13.882;2022-07-23T07:27:35;17.10;99.90
11385;DHT22;5747;56.748;13.882;2022-07-23T07:30:03;16.90;99.90
11385;DHT22;5747;56.748;13.882;2022-07-23T07:32:32;17.00;99.90
11385;DHT22;5747;56.748;13.882;2022-07-23T07:35:20;16.80;99.90
11385;DHT22;5747;56.748;13.882;2022-07-23T07:37:49;16.70;99.90
11385;DHT22;5747;56.748;13.882;2022-07-23T07:40:18;16.70;99.90
11385;DHT22;5747;56.748;13.882;2022-07-23T07:42:46;16.40;99.90
11385;DHT22;5747;56.748;13.882;2022-07-23T07:45:15;16.30;99.90
11385;DHT22;5747;56.748;13.882;2022-07-23T07:47:43;16.10;99.90
11385;DHT22;5747;56.748;13.882;2022-07-23T07:50:11;16.00;99.90
11385;DHT22;5747;56.748;13.882;2022-07-23T07:52:40;16.10;99.90
11385;DHT22;5747;56.748;13.882;2022-07-23T07:55:11;16.10;99.90
11385;DHT22;5747;56.748;13.882;2022-07-23T07:57:40;16.30;99.90
11385;DHT22;5747;56.748;13.882;2022-07-23T08:00:16;16.50;99.90
11385;DHT22;5747;56.748;13.882;2022-07-23T08:02:47;16.90;99.90
11385;DHT22;5747;56.748;13.882;2022-07-23T08:05:19;17.30;99.90
11385;DHT22;5747;56.748;13.882;2022-07-23T08:07:54;17.60;99.90
11385;DHT22;5747;56.748;13.882;2022-07-23T08:10:24;17.70;99.90
11385;DHT22;5747;56.748;13.882;2022-07-23T08:12:53;17.90;99.90
11385;DHT22;5747;56.748;13.882;2022-07-23T08:15:25;17.70;99.90
11385;DHT22;5747;56.748;13.882;2022-07-23T08:17:53;17.60;99.90
11385;DHT22;5747;56.748;13.882;2022-07-23T08:20:23;17.70;99.90
11385;DHT22;5747;56.748;13.882;2022-07-23T08:22:54;17.40;99.90
11385;DHT22;5747;56.748;13.882;2022-07-23T08:25:25;17.30;99.90
11385;DHT22;5747;56.748;13.882;2022-07-23T08:27:54;17.30;99.90
11385;DHT22;5747;56.748;13.882;2022-07-23T08:30:23;17.30;99.90
11385;DHT22;5747;56.748;13.882;2022-07-23T08:32:54;17.40;99.90
11385;DHT22;5747;56.748;13.882;2022-07-23T08:35:28;17.50;99.90
11385;DHT22;5747;56.748;13.882;2022-07-23T08:37:58;17.90;99.90
11385;DHT22;5747;56.748;13.882;2022-07-23T08:40:29;17.70;99.90
11385;DHT22;5747;56.748;13.882;2022-07-23T08:42:58;17.80;99.90
11385;DHT22;5747;56.748;13.882;2022-07-23T08:45:27;17.80;99.90
11385;DHT22;5747;56.748;13.882;2022-07-23T08:47:57;17.90;99.90
11385;DHT22;5747;56.748;13.882;2022-07-23T08:50:29;18.00;99.90
11385;DHT22;5747;56.748;13.882;2022-07-23T08:52:59;18.30;99.90
11385;DHT22;5747;56.748;13.882;2022-07-23T08:55:30;18.40;99.90
11385;DHT22;5747;56.748;13.882;2022-07-23T08:57:59;18.50;99.90
11385;DHT22;5747;56.748;13.882;2022-07-23T09:00:27;18.20;99.90
11385;DHT22;5747;56.748;13.882;2022-07-23T09:02:55;18.10;99.90
11385;DHT22;5747;56.748;13.882;2022-07-23T09:05:24;18.10;99.90
11385;DHT22;5747;56.748;13.882;2022-07-23T09:08:04;18.30;99.90
11385;DHT22;5747;56.748;13.882;2022-07-23T09:10:43;18.80;99.90
11385;DHT22;5747;56.748;13.882;2022-07-23T09:13:23;19.00;99.90
11385;DHT22;5747;56.748;13.882;2022-07-23T09:15:54;19.10;99.90
11385;DHT22;5747;56.748;13.882;2022-07-23T09:18:31;19.10;99.90
11385;DHT22;5747;56.748;13.882;2022-07-23T09:21:11;19.00;99.90
11385;DHT22;5747;56.748;13.882;2022-07-23T09:23:41;19.10;99.90
11385;DHT22;5747;56.748;13.882;2022-07-23T09:26:28;19.30;99.90
11385;DHT22;5747;56.748;13.882;2022-07-23T09:29:04;19.40;99.90
11385;DHT22;5747;56.748;13.882;2022-07-23T09:31:42;19.60;99.90
11385;DHT22;5747;56.748;13.882;2022-07-23T09:34:17;19.70;99.90
11385;DHT22;5747;56.748;13.882;2022-07-23T09:36:46;19.90;99.90
11385;DHT22;5747;56.748;13.882;2022-07-23T09:39:16;19.60;99.90
11385;DHT22;5747;56.748;13.882;2022-07-23T09:41:51;19.70;99.90
11385;DHT22;5747;56.748;13.882;2022-07-23T09:44:20;20.00;99.90
11385;DHT22;5747;56.748;13.882;2022-07-23T09:46:58;20.30;99.90
11385;DHT22;5747;56.748;13.882;2022-07-23T09:49:26;20.40;99.90
11385;DHT22;5747;56.748;13.882;2022-07-23T09:51:57;20.60;99.90
11385;DHT22;5747;56.748;13.882;2022-07-23T09:54:33;20.90;99.90
11385;DHT22;5747;56.748;13.882;2022-07-23T09:57:05;21.00;99.90
11385;DHT22;5747;56.748;13.882;2022-07-23T09:59:36;21.10;99.90
11385;DHT22;5747;56.748;13.882;2022-07-23T10:02:07;21.20;99.90
11385;DHT22;5747;56.748;13.882;2022-07-23T10:04:48;21.10;99.90
11385;DHT22;5747;56.748;13.882;2022-07-23T10:07:38;21.00;99.90
11385;DHT22;5747;56.748;13.882;2022-07-23T10:10:26;20.90;99.90
11385;DHT22;5747;56.748;13.882;2022-07-23T10:13:15;20.80;99.90
11385;DHT22;5747;56.748;13.882;2022-07-23T10:15:59;20.80;99.90
11385;DHT22;5747;56.748;13.882;2022-07-23T10:18:28;20.90;99.90
11385;DHT22;5747;56.748;13.882;2022-07-23T10:20:59;20.80;99.90
11385;DHT22;5747;56.748;13.882;2022-07-23T10:23:39;20.90;99.90
11385;DHT22;5747;56.748;13.882;2022-07-23T10:26:15;21.00;99.90
11385;DHT22;5747;56.748;13.882;2022-07-23T10:29:01;21.10;99.90
11385;DHT22;5747;56.748;13.882;2022-07-23T10:31:38;21.30;99.90
11385;DHT22;5747;56.748;13.882;2022-07-23T10:34:33;21.70;99.90
11385;DHT22;5747;56.748;13.882;2022-07-23T10:37:07;21.60;99.90
11385;DHT22;5747;56.748;13.882;2022-07-23T10:39:47;21.50;99.90
11385;DHT22;5747;56.748;13.882;2022-07-23T10:42:16;21.30;99.90
11385;DHT22;5747;56.748;13.882;2022-07-23T10:44:47;21.20;99.90
11385;DHT22;5747;56.748;13.882;2022-07-23T10:47:25;21.10;99.90
11385;DHT22;5747;56.748;13.882;2022-07-23T10:50:21;21.00;99.90
11385;DHT22;5747;56.748;13.882;2022-07-23T10:53:12;21.30;99.90
11385;DHT22;5747;56.748;13.882;2022-07-23T10:55:47;21.50;99.90
11385;DHT22;5747;56.748;13.882;2022-07-23T10:58:21;21.80;99.90
11385;DHT22;5747;56.748;13.882;2022-07-23T11:00:51;22.20;99.90
11385;DHT22;5747;56.748;13.882;2022-07-23T11:03:34;22.10;99.90
11385;DHT22;5747;56.748;13.882;2022-07-23T11:06:05;21.70;99.90
11385;DHT22;5747;56.748;13.882;2022-07-23T11:08:34;21.40;99.90
11385;DHT22;5747;56.748;13.882;2022-07-23T11:11:10;21.20;99.90
11385;DHT22;5747;56.748;13.882;2022-07-23T11:13:46;20.90;99.90
11385;DHT22;5747;56.748;13.882;2022-07-23T11:16:18;20.80;99.90
11385;DHT22;5747;56.748;13.882;2022-07-23T11:19:06;20.70;99.90
11385;DHT22;5747;56.748;13.882;2022-07-23T11:21:58;20.70;99.90
11385;DHT22;5747;56.748;13.882;2022-07-23T11:24:26;20.70;99.90
11385;DHT22;5747;56.748;13.882;2022-07-23T11:26:57;20.60;99.90
11385;DHT22;5747;56.748;13.882;2022-07-23T11:29:46;20.30;99.90
11385;DHT22;5747;56.748;13.882;2022-07-23T11:32:31;20.30;99.90
11385;DHT22;5747;56.748;13.882;2022-07-23T11:35:01;20.30;99.90
11385;DHT22;5747;56.748;13.882;2022-07-23T11:37:33;20.20;99.90
11385;DHT22;5747;56.748;13.882;2022-07-23T11:40:05;20.10;99.90
11385;DHT22;5747;56.748;13.882;2022-07-23T11:42:36;19.80;99.90
11385;DHT22;5747;56.748;13.882;2022-07-23T11:45:06;19.60;99.90
11385;DHT22;5747;56.748;13.882;2022-07-23T11:47:36;19.40;99.90
11385;DHT22;5747;56.748;13.882;2022-07-23T11:50:06;19.30;99.90
11385;DHT22;5747;56.748;13.882;2022-07-23T11:52:35;18.80;99.90
11385;DHT22;5747;56.748;13.882;2022-07-23T11:55:05;18.70;99.90
11385;DHT22;5747;56.748;13.882;2022-07-23T11:57:36;18.90;99.90
11385;DHT22;5747;56.748;13.882;2022-07-23T12:00:07;19.10;99.90
11385;DHT22;5747;56.748;13.882;2022-07-23T12:02:40;19.40;99.90
11385;DHT22;5747;56.748;13.882;2022-07-23T12:05:12;19.50;99.90
11385;DHT22;5747;56.748;13.882;2022-07-23T12:07:42;19.80;99.90
11385;DHT22;5747;56.748;13.882;2022-07-23T12:10:13;20.20;99.90
11385;DHT22;5747;56.748;13.882;2022-07-23T12:12:43;20.50;99.90
11385;DHT22;5747;56.748;13.882;2022-07-23T12:15:14;20.60;99.90
11385;DHT22;5747;56.748;13.882;2022-07-23T12:17:45;20.60;99.90
11385;DHT22;5747;56.748;13.882;2022-07-23T12:20:20;20.60;99.90
11385;DHT22;5747;56.748;13.882;2022-07-23T12:22:50;20.80;99.90
11385;DHT22;5747;56.748;13.882;2022-07-23T12:25:19;21.00;99.90
11385;DHT22;5747;56.748;13.882;2022-07-23T12:27:59;21.20;99.90
11385;DHT22;5747;56.748;13.882;2022-07-23T12:30:29;21.30;99.90
11385;DHT22;5747;56.748;13.882;2022-07-23T12:33:03;21.40;99.90
11385;DHT22;5747;56.748;13.882;2022-07-23T12:35:34;21.60;99.90
11385;DHT22;5747;56.748;13.882;2022-07-23T12:38:08;21.80;99.90
11385;DHT22;5747;56.748;13.882;2022-07-23T12:40:41;21.90;99.90
11385;DHT22;5747;56.748;13.882;2022-07-23T12:43:11;22.10;99.90
11385;DHT22;5747;56.748;13.882;2022-07-23T12:45:47;22.10;99.90
11385;DHT22;5747;56.748;13.882;2022-07-23T12:48:19;22.30;99.90
11385;DHT22;5747;56.748;13.882;2022-07-23T12:50:50;22.10;99.90
11385;DHT22;5747;56.748;13.882;2022-07-23T12:53:22;22.20;99.90
11385;DHT22;5747;56.748;13.882;2022-07-23T12:55:57;22.20;99.90
11385;DHT22;5747;56.748;13.882;2022-07-23T12:58:47;22.30;99.90
11385;DHT22;5747;56.748;13.882;2022-07-23T13:01:27;22.40;99.90
11385;DHT22;5747;56.748;13.882;2022-07-23T13:04:00;22.50;99.90
11385;DHT22;5747;56.748;13.882;2022-07-23T13:06:33;22.50;99.90
11385;DHT22;5747;56.748;13.882;2022-07-23T13:09:02;22.50;99.90
11385;DHT22;5747;56.748;13.882;2022-07-23T13:11:31;22.40;99.90
11385;DHT22;5747;56.748;13.882;2022-07-23T13:14:01;22.30;99.90
11385;DHT22;5747;56.748;13.882;2022-07-23T13:16:32;22.30;99.90
11385;DHT22;5747;56.748;13.882;2022-07-23T13:19:02;22.60;99.90
11385;DHT22;5747;56.748;13.882;2022-07-23T13:21:31;22.60;99.90
11385;DHT22;5747;56.748;13.882;2022-07-23T13:23:59;22.50;99.90
11385;DHT22;5747;56.748;13.882;2022-07-23T13:26:33;22.40;99.90
11385;DHT22;5747;56.748;13.882;2022-07-23T13:29:01;22.30;99.90
11385;DHT22;5747;56.748;13.882;2022-07-23T13:31:30;22.20;99.90
11385;DHT22;5747;56.748;13.882;2022-07-23T13:33:59;22.10;99.90
11385;DHT22;5747;56.748;13.882;2022-07-23T13:36:28;21.80;99.90
11385;DHT22;5747;56.748;13.882;2022-07-23T13:38:56;21.80;99.90
11385;DHT22;5747;56.748;13.882;2022-07-23T13:41:25;21.70;99.90
11385;DHT22;5747;56.748;13.882;2022-07-23T13:43:53;21.80;99.90
11385;DHT22;5747;56.748;13.882;2022-07-23T13:46:24;21.90;99.90
11385;DHT22;5747;56.748;13.882;2022-07-23T13:48:53;22.10;99.90
11385;DHT22;5747;56.748;13.882;2022-07-23T13:51:21;22.20;99.90
11385;DHT22;5747;56.748;13.882;2022-07-23T13:53:53;22.10;99.90
11385;DHT22;5747;56.748;13.882;2022-07-23T13:56:21;21.90;99.90
11385;DHT22;5747;56.748;13.882;2022-07-23T13:58:49;21.80;99.90
11385;DHT22;5747;56.748;13.882;2022-07-23T14:01:17;21.80;99.90
11385;DHT22;5747;56.748;13.882;2022-07-23T14:03:46;21.70;99.90
11385;DHT22;5747;56.748;13.882;2022-07-23T14:06:14;21.60;99.90
11385;DHT22;5747;56.748;13.882;2022-07-23T14:08:42;21.50;99.90
11385;DHT22;5747;56.748;13.882;2022-07-23T14:11:12;21.50;99.90
11385;DHT22;5747;56.748;13.882;2022-07-23T14:13:40;21.40;99.90
11385;DHT22;5747;56.748;13.882;2022-07-23T14:16:09;21.20;99.90
11385;DHT22;5747;56.748;13.882;2022-07-23T14:18:37;21.00;99.90
11385;DHT22;5747;56.748;13.882;2022-07-23T14:21:06;20.90;99.90
11385;DHT22;5747;56.748;13.882;2022-07-23T14:23:35;20.80;99.90
11385;DHT22;5747;56.748;13.882;2022-07-23T14:26:05;20.70;99.90
11385;DHT22;5747;56.748;13.882;2022-07-23T14:28:35;20.70;99.90
11385;DHT22;5747;56.748;13.882;2022-07-23T14:31:06;20.70;99.90
11385;DHT22;5747;56.748;13.882;2022-07-23T14:33:47;20.70;99.90
11385;DHT22;5747;56.748;13.882;2022-07-23T14:36:15;20.80;99.90
11385;DHT22;5747;56.748;13.882;2022-07-23T14:38:44;20.70;99.90
11385;DHT22;5747;56.748;13.882;2022-07-23T14:41:13;20.70;99.90
11385;DHT22;5747;56.748;13.882;2022-07-23T14:43:43;20.70;99.90
11385;DHT22;5747;56.748;13.882;2022-07-23T14:46:13;20.60;99.90
11385;DHT22;5747;56.748;13.882;2022-07-23T14:48:42;20.60;99.90
11385;DHT22;5747;56.748;13.882;2022-07-23T14:51:10;20.50;99.90
11385;DHT22;5747;56.748;13.882;2022-07-23T14:53:38;20.60;99.90
11385;DHT22;5747;56.748;13.882;2022-07-23T14:56:06;20.60;99.90
11385;DHT22;5747;56.748;13.882;2022-07-23T14:58:34;20.70;99.90
11385;DHT22;5747;56.748;13.882;2022-07-23T15:01:05;20.80;99.90
11385;DHT22;5747;56.748;13.882;2022-07-23T15:03:33;20.90;99.90
11385;DHT22;5747;56.748;13.882;2022-07-23T15:06:09;20.90;99.90
11385;DHT22;5747;56.748;13.882;2022-07-23T15:08:38;21.00;99.90
11385;DHT22;5747;56.748;13.882;2022-07-23T15:11:07;21.00;99.90
11385;DHT22;5747;56.748;13.882;2022-07-23T15:13:37;21.20;99.90
11385;DHT22;5747;56.748;13.882;2022-07-23T15:16:07;21.20;99.90
11385;DHT22;5747;56.748;13.882;2022-07-23T15:18:36;21.10;99.90
11385;DHT22;5747;56.748;13.882;2022-07-23T15:21:05;21.20;99.90
11385;DHT22;5747;56.748;13.882;2022-07-23T15:23:34;21.30;99.90
11385;DHT22;5747;56.748;13.882;2022-07-23T15:26:05;21.30;99.90
11385;DHT22;5747;56.748;13.882;2022-07-23T15:28:34;21.30;99.90
11385;DHT22;5747;56.748;13.882;2022-07-23T15:31:03;21.30;99.90
11385;DHT22;5747;56.748;13.882;2022-07-23T15:33:36;21.30;99.90
11385;DHT22;5747;56.748;13.882;2022-07-23T15:36:04;21.30;99.90
11385;DHT22;5747;56.748;13.882;2022-07-23T15:38:33;21.30;99.90
11385;DHT22;5747;56.748;13.882;2022-07-23T15:41:02;21.20;99.90
11385;DHT22;5747;56.748;13.882;2022-07-23T15:43:30;21.10;99.90
11385;DHT22;5747;56.748;13.882;2022-07-23T15:45:58;20.90;99.90
11385;DHT22;5747;56.748;13.882;2022-07-23T15:48:27;20.90;99.90
11385;DHT22;5747;56.748;13.882;2022-07-23T15:50:57;20.90;99.90
11385;DHT22;5747;56.748;13.882;2022-07-23T15:53:26;20.90;99.90